Time;durP1;ratioP1;P1;durP2;ratioP2;P2;SDS_P1;SDS_P2;PMS_P1;PMS_P2;Temp;Humidity;BMP_temperature;BMP_pressure;BME280_temperature;BME280_humidity;BME280_pressure;Samples;Min_cycle;Max_cycle;Signal;HPM_P1;HPM_P2
2021/04/14 00:01:17;;;;;;;32.03;20.05;;;;;;;9.53;77.47;99476.83;1724353;83;21134;-69
2021/04/14 00:03:47;;;;;;;32.83;20.45;;;;;;;9.56;77.49;99471.32;1730688;83;21166;-68
2021/04/14 00:06:14;;;;;;;30.25;20.45;;;;;;;9.64;77.20;99470.31;1722498;83;21304;-68
2021/04/14 00:08:42;;;;;;;30.12;18.30;;;;;;;9.60;77.15;99474.10;1702227;83;21142;-68
2021/04/14 00:11:16;;;;;;;26.52;18.32;;;;;;;9.50;77.25;99469.97;1703395;83;21146;-68
2021/04/14 00:13:46;;;;;;;27.42;17.85;;;;;;;9.53;77.19;99475.51;1700598;84;21619;-69
2021/04/14 00:16:15;;;;;;;27.42;17.60;;;;;;;9.61;76.88;99469.20;1695201;83;21166;-69
2021/04/14 00:18:44;;;;;;;25.95;17.25;;;;;;;9.53;76.87;99470.69;1694251;85;21155;-68
2021/04/14 00:21:12;;;;;;;26.87;17.77;;;;;;;9.45;76.89;99467.27;1694560;84;21646;-68
2021/04/14 00:23:40;;;;;;;26.97;18.25;;;;;;;9.53;76.73;99474.64;1695218;83;21690;-69
2021/04/14 00:26:09;;;;;;;25.95;18.12;;;;;;;9.59;76.52;99477.72;1702260;83;21142;-69
2021/04/14 00:28:37;;;;;;;24.52;17.50;;;;;;;9.57;76.61;99467.73;1723432;83;21222;-69
2021/04/14 00:31:05;;;;;;;26.37;17.12;;;;;;;9.53;76.66;99468.91;1723453;83;21179;-69
2021/04/14 00:33:32;;;;;;;26.77;17.00;;;;;;;9.64;76.25;99466.81;1722022;83;21682;-69
2021/04/14 00:36:00;;;;;;;27.37;17.17;;;;;;;9.60;76.25;99464.03;1694308;85;21194;-69
2021/04/14 00:38:27;;;;;;;25.32;17.37;;;;;;;9.53;76.31;99460.99;1696745;83;21595;-69
2021/04/14 00:40:59;;;;;;;24.98;16.27;;;;;;;9.57;76.23;99462.45;1694441;85;21158;-69
2021/04/14 00:43:32;;;;;;;24.98;16.62;;;;;;;9.66;75.97;99466.24;1694333;85;21163;-69
2021/04/14 00:46:01;;;;;;;27.17;16.60;;;;;;;9.60;75.89;99458.27;1699027;83;21273;-69
2021/04/14 00:48:29;;;;;;;24.60;16.15;;;;;;;9.55;75.97;99457.75;1696195;83;21599;-69
2021/04/14 00:51:00;;;;;;;23.57;16.87;;;;;;;9.68;75.76;99457.75;1694570;83;21093;-69
2021/04/14 00:53:28;;;;;;;24.72;16.20;;;;;;;9.68;75.63;99455.94;1694418;85;21206;-69
2021/04/14 00:55:55;;;;;;;20.72;15.08;;;;;;;9.60;75.67;99449.02;1696369;83;21298;-69
2021/04/14 00:58:22;;;;;;;22.40;15.53;;;;;;;9.62;75.34;99452.41;1703245;83;21318;-69
2021/04/14 01:00:51;;;;;;;21.05;14.75;;;;;;;9.74;74.96;99448.53;1702312;83;21169;-70
2021/04/14 01:03:32;;;;;;;20.08;14.05;;;;;;;9.68;74.88;99448.02;1723478;83;21179;-70
2021/04/14 01:06:02;;;;;;;21.05;14.90;;;;;;;9.63;74.91;99435.63;1720946;83;21575;-70
2021/04/14 01:08:29;;;;;;;19.30;13.95;;;;;;;9.73;74.60;99442.88;1694474;85;21187;-70
2021/04/14 01:10:56;;;;;;;18.98;13.95;;;;;;;9.76;74.34;99430.79;1702853;83;21304;-70
2021/04/14 01:13:24;;;;;;;19.82;12.47;;;;;;;9.69;74.37;99440.92;1709756;83;21178;-69
2021/04/14 01:15:52;;;;;;;19.05;12.53;;;;;;;9.66;74.36;99443.31;1683645;84;21590;-69
2021/04/14 01:18:26;;;;;;;19.98;13.53;;;;;;;9.80;74.06;99436.21;1709956;84;21196;-70
2021/04/14 01:20:54;;;;;;;17.00;13.20;;;;;;;9.78;73.94;99432.83;1707329;84;21167;-70
2021/04/14 01:23:26;;;;;;;16.90;12.00;;;;;;;9.71;73.99;99435.07;1709833;83;21477;-70
2021/04/14 01:25:55;;;;;;;16.90;12.40;;;;;;;9.74;73.91;99439.28;1706133;84;21171;-69
2021/04/14 01:28:32;;;;;;;20.10;13.05;;;;;;;9.84;73.58;99433.70;1703813;84;21163;-70
2021/04/14 01:31:01;;;;;;;19.52;12.28;;;;;;;9.79;73.64;99435.34;1681512;85;21686;-70
2021/04/14 01:33:31;;;;;;;17.23;12.15;;;;;;;9.73;73.62;99438.91;1681283;85;21191;-70
2021/04/14 01:36:00;;;;;;;16.90;12.13;;;;;;;9.75;73.57;99444.94;1681388;85;21181;-70
2021/04/14 01:38:29;;;;;;;17.67;12.05;;;;;;;9.80;73.41;99434.40;1681275;84;21623;-70
2021/04/14 01:40:58;;;;;;;17.65;12.80;;;;;;;9.76;73.51;99447.95;1681375;85;21194;-70
2021/04/14 01:43:25;;;;;;;15.70;11.40;;;;;;;9.69;73.53;99452.81;1681234;85;21452;-69
2021/04/14 01:45:52;;;;;;;17.48;12.07;;;;;;;9.77;73.35;99433.77;1681390;85;21600;-70
2021/04/14 01:48:19;;;;;;;19.50;12.58;;;;;;;9.79;73.31;99434.02;1698944;84;21167;-69
2021/04/14 01:50:47;;;;;;;18.20;12.85;;;;;;;9.75;73.46;99431.73;1709748;84;21329;-69
2021/04/14 01:53:17;;;;;;;19.55;12.30;;;;;;;9.70;73.47;99427.27;1709747;84;21219;-70
2021/04/14 01:55:44;;;;;;;18.48;12.90;;;;;;;9.76;73.42;99429.47;1702807;84;21191;-70
2021/04/14 01:58:13;;;;;;;18.80;13.28;;;;;;;9.81;73.28;99426.84;1688976;84;21205;-69
2021/04/14 02:00:54;;;;;;;19.23;12.37;;;;;;;9.74;73.44;99423.44;1704638;84;21163;-70
2021/04/14 02:03:22;;;;;;;17.37;12.78;;;;;;;9.65;73.61;99428.91;1681830;84;21313;-69
2021/04/14 02:05:50;;;;;;;19.87;13.65;;;;;;;9.74;73.47;99414.20;1681316;84;21153;-69
2021/04/14 02:08:17;;;;;;;22.67;13.72;;;;;;;9.77;73.44;99412.64;1688066;84;21576;-70
2021/04/14 02:10:45;;;;;;;19.60;13.13;;;;;;;9.71;73.60;99407.34;1709575;83;21743;-70
2021/04/14 02:13:17;;;;;;;20.15;12.28;;;;;;;9.70;73.65;99408.78;1709604;83;21195;-70
2021/04/14 02:15:45;;;;;;;18.17;13.38;;;;;;;9.80;73.39;99398.74;1709783;83;21248;-70
2021/04/14 02:18:14;;;;;;;18.75;13.40;;;;;;;9.86;73.31;99416.42;1701213;84;21163;-70
2021/04/14 02:20:41;;;;;;;20.23;13.68;;;;;;;9.78;73.38;99410.38;1681328;85;21333;-70
2021/04/14 02:23:28;;;;;;;21.87;12.45;;;;;;;9.73;73.40;99409.87;1681150;84;21163;-70
2021/04/14 02:26:01;;;;;;;21.57;13.45;;;;;;;9.74;73.40;99412.39;1681217;85;21301;-69
2021/04/14 02:28:28;;;;;;;21.77;13.50;;;;;;;9.83;73.13;99401.19;1681083;85;21175;-69
2021/04/14 02:30:58;;;;;;;20.37;14.45;;;;;;;9.80;73.24;99396.59;1680822;84;21382;-70
2021/04/14 02:33:25;;;;;;;19.07;13.88;;;;;;;9.74;73.31;99402.31;1696623;84;21195;-71
2021/04/14 02:35:54;;;;;;;18.90;13.15;;;;;;;9.64;73.33;99408.27;1709388;84;21159;-69
2021/04/14 02:38:22;;;;;;;19.45;13.43;;;;;;;9.68;73.13;99405.77;1709622;84;21195;-67
2021/04/14 02:40:49;;;;;;;17.17;13.05;;;;;;;9.67;73.09;99401.92;1682983;84;21309;-67
2021/04/14 02:43:17;;;;;;;19.48;13.65;;;;;;;9.52;73.33;99409.14;1703849;84;21163;-67
2021/04/14 02:45:44;;;;;;;19.90;13.90;;;;;;;9.40;73.58;99408.23;1681152;85;21175;-67
2021/04/14 02:48:11;;;;;;;19.67;13.28;;;;;;;9.25;73.83;99404.87;1676232;85;21655;-66
2021/04/14 02:50:38;;;;;;;21.07;14.15;;;;;;;9.33;73.65;99412.24;1681175;84;21294;-67
2021/04/14 02:53:06;;;;;;;20.25;13.38;;;;;;;9.33;73.54;99409.60;1681268;85;21199;-67
2021/04/14 02:55:34;;;;;;;19.20;13.80;;;;;;;9.21;73.78;99413.95;1692852;84;21171;-67
2021/04/14 02:58:01;;;;;;;19.05;13.30;;;;;;;9.09;74.06;99410.84;1681811;84;21187;-67
2021/04/14 03:00:30;;;;;;;18.65;13.30;;;;;;;9.06;74.16;99415.03;1692038;84;21294;-67
2021/04/14 03:02:58;;;;;;;17.42;12.70;;;;;;;9.12;74.03;99420.72;1684158;84;21602;-67
2021/04/14 03:05:30;;;;;;;21.12;14.18;;;;;;;9.06;74.26;99428.22;1681469;85;21195;-67
2021/04/14 03:07:58;;;;;;;21.57;13.93;;;;;;;8.94;74.53;99421.52;1688546;84;21305;-67
2021/04/14 03:10:27;;;;;;;17.15;12.10;;;;;;;8.88;74.74;99428.52;1695433;84;21131;-67
2021/04/14 03:12:55;;;;;;;17.65;11.57;;;;;;;8.92;74.67;99428.68;1681734;85;21228;-67
2021/04/14 03:15:27;;;;;;;16.67;12.20;;;;;;;8.94;74.56;99429.43;1681297;84;21627;-67
2021/04/14 03:17:54;;;;;;;19.90;13.40;;;;;;;8.83;74.68;99429.31;1706337;84;21092;-67
2021/04/14 03:20:22;;;;;;;17.32;11.95;;;;;;;8.73;74.86;99430.89;1709710;84;21183;-67
2021/04/14 03:22:51;;;;;;;19.10;11.85;;;;;;;8.78;74.69;99419.56;1684865;84;21309;-67
2021/04/14 03:25:19;;;;;;;18.25;11.75;;;;;;;8.88;74.35;99416.66;1694518;84;21568;-67
2021/04/14 03:27:46;;;;;;;18.82;12.65;;;;;;;8.87;74.16;99420.24;1704377;84;21159;-67
2021/04/14 03:30:15;;;;;;;17.27;12.15;;;;;;;8.80;74.18;99414.55;1683820;84;21163;-67
2021/04/14 03:32:42;;;;;;;15.93;11.15;;;;;;;8.76;74.09;99418.80;1707743;84;21177;-67
2021/04/14 03:35:11;;;;;;;19.55;11.40;;;;;;;8.87;73.66;99416.28;1709658;84;21675;-67
2021/04/14 03:37:39;;;;;;;17.07;11.33;;;;;;;8.97;73.23;99412.06;1709582;84;21293;-67
2021/04/14 03:40:07;;;;;;;17.85;11.63;;;;;;;8.95;72.71;99403.89;1709573;84;21218;-67
2021/04/14 03:42:35;;;;;;;13.65;10.13;;;;;;;8.92;72.47;99411.53;1696985;84;21152;-67
2021/04/14 03:45:11;;;;;;;14.53;10.28;;;;;;;8.88;72.19;99417.98;1681236;85;21175;-67
2021/04/14 03:47:34;;;;;;;14.73;11.05;;;;;;;8.99;71.76;99410.17;1680868;85;21296;-67
2021/04/14 03:50:02;;;;;;;16.42;10.82;;;;;;;8.98;71.52;99416.39;1681457;85;21683;-67
2021/04/14 03:52:30;;;;;;;16.32;11.53;;;;;;;8.94;71.52;99410.97;1698310;84;21140;-67
2021/04/14 03:56:18;;;;;;;16.25;10.60;;;;;;;8.94;71.54;99408.33;1778293;79;23567;-66
2021/04/14 03:58:49;;;;;;;16.62;10.68;;;;;;;8.92;71.18;99413.34;1723184;83;21218;-67
2021/04/14 04:01:23;;;;;;;19.05;11.93;;;;;;;9.04;70.84;99406.36;1719833;83;21163;-66
2021/04/14 04:03:52;;;;;;;23.73;15.35;;;;;;;9.02;70.96;99409.95;1694459;84;21191;-66
2021/04/14 04:06:20;;;;;;;20.85;13.90;;;;;;;8.93;71.20;99410.59;1694186;84;21186;-66
2021/04/14 04:08:49;;;;;;;17.95;12.00;;;;;;;8.83;71.33;99418.77;1698497;83;21149;-67
2021/04/14 04:11:17;;;;;;;16.90;11.38;;;;;;;8.86;71.13;99421.18;1707501;83;22346;-66
2021/04/14 04:13:47;;;;;;;17.95;12.82;;;;;;;8.88;70.94;99421.94;1712752;82;21320;-66
2021/04/14 04:16:15;;;;;;;15.63;11.65;;;;;;;8.83;71.03;99426.68;1706120;83;21166;-66
2021/04/14 04:18:44;;;;;;;15.65;11.53;;;;;;;8.80;70.81;99417.67;1683238;84;21119;-65
2021/04/14 04:21:12;;;;;;;15.23;10.93;;;;;;;8.79;70.08;99419.94;1706705;83;21131;-65
2021/04/14 04:23:41;;;;;;;18.48;10.98;;;;;;;8.77;68.69;99412.59;1721114;83;21166;-68
2021/04/14 04:26:08;;;;;;;15.38;10.23;;;;;;;8.75;67.75;99407.91;1710539;82;21603;-71
2021/04/14 04:28:36;;;;;;;15.80;10.75;;;;;;;8.83;65.58;99410.86;1701580;83;21174;-70
2021/04/14 04:31:03;;;;;;;16.05;10.53;;;;;;;8.89;64.39;99405.63;1699658;83;21186;-70
2021/04/14 04:33:31;;;;;;;14.60;10.82;;;;;;;8.88;64.12;99415.34;1708770;83;21271;-70
2021/04/14 04:35:58;;;;;;;14.18;10.53;;;;;;;8.84;64.33;99409.42;1710467;83;21158;-71
2021/04/14 04:38:26;;;;;;;15.70;11.03;;;;;;;8.81;63.28;99417.56;1700458;83;21178;-69
2021/04/14 04:40:53;;;;;;;14.80;10.50;;;;;;;8.78;62.97;99415.61;1702082;83;21280;-68
2021/04/14 04:43:21;;;;;;;17.35;11.00;;;;;;;8.75;62.75;99413.19;1715441;83;21622;-68
2021/04/14 04:45:51;;;;;;;20.95;14.65;;;;;;;8.72;62.39;99415.56;1706052;83;21175;-69
2021/04/14 04:48:18;;;;;;;24.60;15.18;;;;;;;8.73;62.38;99411.12;1705735;83;21532;-69
2021/04/14 04:50:45;;;;;;;18.07;11.65;;;;;;;8.72;62.85;99418.66;1706143;83;21186;-69
2021/04/14 04:53:17;;;;;;;17.70;10.28;;;;;;;8.80;62.90;99415.03;1699128;83;21191;-70
2021/04/14 04:55:45;;;;;;;16.55;10.85;;;;;;;8.94;61.49;99414.92;1709062;83;21167;-69
2021/04/14 04:58:13;;;;;;;16.52;9.70;;;;;;;8.92;60.65;99430.00;1684710;84;21157;-69
2021/04/14 05:00:41;;;;;;;14.75;10.05;;;;;;;8.85;61.08;99444.08;1693914;84;21143;-70
2021/04/14 05:03:08;;;;;;;14.20;10.35;;;;;;;8.81;61.94;99432.52;1692624;84;21199;-70
2021/04/14 05:05:38;;;;;;;18.32;10.15;;;;;;;8.73;62.65;99437.48;1688573;83;21136;-70
2021/04/14 05:08:06;;;;;;;19.00;11.18;;;;;;;8.68;63.28;99435.14;1695968;84;22345;-69
2021/04/14 05:10:35;;;;;;;16.48;10.70;;;;;;;8.65;63.55;99433.56;1696250;83;21266;-68
2021/04/14 05:13:02;;;;;;;17.90;10.53;;;;;;;8.63;63.57;99435.48;1696445;84;21277;-67
2021/04/14 05:15:33;;;;;;;17.73;11.63;;;;;;;8.73;63.33;99433.53;1698076;84;21297;-70
2021/04/14 05:18:01;;;;;;;16.95;11.25;;;;;;;8.77;63.25;99442.45;1696052;84;21180;-69
2021/04/14 05:20:29;;;;;;;15.20;9.93;;;;;;;8.74;63.00;99436.54;1709667;84;21211;-71
2021/04/14 05:22:57;;;;;;;15.80;10.48;;;;;;;8.72;62.64;99434.47;1684097;84;21655;-70
2021/04/14 05:25:30;;;;;;;15.48;10.75;;;;;;;8.71;62.38;99442.00;1681469;85;21139;-71
2021/04/14 05:28:04;;;;;;;14.30;9.95;;;;;;;8.72;62.17;99441.06;1682752;84;21191;-70
2021/04/14 05:30:28;;;;;;;17.65;11.73;;;;;;;8.73;61.77;99445.39;1709790;84;21175;-72
2021/04/14 05:32:56;;;;;;;16.45;11.70;;;;;;;8.74;61.27;99451.87;1709767;84;21191;-71
2021/04/14 05:35:23;;;;;;;14.03;10.03;;;;;;;8.76;60.71;99449.12;1690508;84;21207;-71
2021/04/14 05:37:51;;;;;;;18.20;10.93;;;;;;;8.66;60.84;99423.88;1681274;85;21155;-71
2021/04/14 05:40:18;;;;;;;16.87;10.82;;;;;;;8.73;61.02;99444.08;1696097;84;21177;-71
2021/04/14 05:42:47;;;;;;;17.37;10.88;;;;;;;8.72;61.24;99443.70;1710012;83;21199;-71
2021/04/14 05:45:27;;;;;;;18.42;12.13;;;;;;;8.74;61.57;99446.59;1709718;84;21175;-70
2021/04/14 05:47:55;;;;;;;28.65;15.72;;;;;;;8.77;61.67;99438.95;1709666;83;21148;-71
2021/04/14 05:50:25;;;;;;;22.20;12.88;;;;;;;8.78;61.55;99435.38;1704245;84;21143;-71
2021/04/14 05:52:52;;;;;;;38.78;22.22;;;;;;;8.78;61.54;99436.70;1707690;84;21120;-71
2021/04/14 05:55:20;;;;;;;38.58;23.10;;;;;;;8.76;61.73;99450.45;1689370;84;21659;-71
2021/04/14 05:57:47;;;;;;;43.20;24.57;;;;;;;8.79;61.95;99440.54;1694388;85;21328;-72
2021/04/14 06:00:17;;;;;;;40.33;23.30;;;;;;;8.94;61.99;99436.02;1694372;85;21678;-71
2021/04/14 06:02:44;;;;;;;36.73;20.90;;;;;;;9.11;61.70;99436.66;1694308;85;21202;-71
2021/04/14 06:05:13;;;;;;;25.05;16.30;;;;;;;9.11;61.60;99433.53;1667220;85;21609;-70
2021/04/14 06:07:41;;;;;;;29.02;18.55;;;;;;;9.06;61.84;99433.49;1723093;83;21324;-71
2021/04/14 06:10:10;;;;;;;26.70;17.02;;;;;;;8.99;62.15;99431.73;1723076;83;21155;-72
2021/04/14 06:12:37;;;;;;;18.02;13.55;;;;;;;8.93;62.58;99438.28;1708281;83;21210;-71
2021/04/14 06:15:10;;;;;;;17.30;12.55;;;;;;;8.93;62.84;99438.28;1660570;85;21181;-71
2021/04/14 06:17:37;;;;;;;23.52;13.72;;;;;;;8.97;62.94;99430.52;1694440;85;21190;-71
2021/04/14 06:20:08;;;;;;;18.48;13.43;;;;;;;8.99;62.91;99439.64;1694626;85;21194;-70
2021/04/14 06:22:36;;;;;;;20.25;14.20;;;;;;;8.98;63.20;99438.81;1694207;85;21626;-71
2021/04/14 06:25:06;;;;;;;19.60;11.73;;;;;;;9.02;63.22;99432.37;1720493;83;21115;-71
2021/04/14 06:27:36;;;;;;;15.10;10.63;;;;;;;9.22;62.99;99439.39;1713672;83;21619;-69
2021/04/14 06:30:05;;;;;;;17.45;11.93;;;;;;;9.29;62.99;99433.20;1694200;85;21166;-71
2021/04/14 06:32:34;;;;;;;17.23;11.73;;;;;;;9.28;62.93;99436.30;1694320;85;21651;-70
2021/04/14 06:35:01;;;;;;;19.90;12.23;;;;;;;9.30;62.99;99437.05;1694307;85;21214;-70
2021/04/14 06:37:29;;;;;;;18.80;11.45;;;;;;;9.31;63.01;99438.75;1694553;85;21627;-69
2021/04/14 06:43:13;;;;;;;16.60;12.47;;;;;;;9.38;62.60;99439.64;1694541;85;21289;-72
2021/04/14 06:45:59;;;;;;;18.73;12.28;;;;;;;9.38;62.33;99434.36;1694316;85;21183;-71
2021/04/14 06:48:50;;;;;;;19.98;12.07;;;;;;;9.33;61.74;99438.17;1694520;85;21571;-71
2021/04/14 06:51:52;;;;;;;20.40;12.70;;;;;;;9.28;61.94;99440.27;1694316;85;21321;-71
2021/04/14 06:54:50;;;;;;;17.45;12.63;;;;;;;9.27;61.73;99438.59;1694259;85;21203;-71
2021/04/14 06:57:27;;;;;;;18.37;10.90;;;;;;;9.30;61.71;99441.50;1694444;83;21671;-71
2021/04/14 07:00:03;;;;;;;20.68;11.97;;;;;;;9.32;61.72;99452.77;1658545;86;21170;-71
2021/04/14 07:02:47;;;;;;;24.80;12.90;;;;;;;9.32;61.58;99444.40;1695042;85;21560;-71
2021/04/14 07:05:26;;;;;;;15.45;11.00;;;;;;;9.31;61.06;99444.48;1689110;85;21309;-72
2021/04/14 07:07:55;;;;;;;16.45;10.40;;;;;;;9.28;60.44;99446.86;1694440;85;21155;-71
2021/04/14 07:10:30;;;;;;;17.25;11.68;;;;;;;9.25;60.54;99452.85;1669208;85;21155;-71
2021/04/14 07:13:04;;;;;;;17.57;12.53;;;;;;;9.23;60.81;99450.30;1705482;83;21587;-71
2021/04/14 07:15:32;;;;;;;14.28;9.73;;;;;;;9.29;60.62;99457.78;1721257;83;21174;-70
2021/04/14 07:18:26;;;;;;;18.62;11.75;;;;;;;9.37;60.43;99453.30;1699804;83;21147;-74
2021/04/14 07:21:11;;;;;;;21.17;13.00;;;;;;;9.39;60.43;99462.45;1696619;83;21178;-71
2021/04/14 07:24:00;;;;;;;17.67;11.78;;;;;;;9.43;60.47;99453.36;1722080;83;21800;-71
2021/04/14 07:26:39;;;;;;;26.73;17.57;;;;;;;9.48;60.30;99453.88;1699907;83;21115;-71
2021/04/14 07:29:29;;;;;;;22.42;14.33;;;;;;;9.54;60.02;99450.80;1710056;83;21640;-71
2021/04/14 07:32:17;;;;;;;17.62;11.43;;;;;;;9.68;59.93;99455.94;1700472;83;21158;-71
2021/04/14 07:35:15;;;;;;;16.67;12.07;;;;;;;9.85;58.28;99453.89;1707598;83;21603;-72
2021/04/14 07:37:49;;;;;;;20.77;12.40;;;;;;;9.95;58.21;99457.55;1719449;83;21198;-71
2021/04/14 07:40:25;;;;;;;22.00;13.58;;;;;;;10.07;58.13;99456.30;1693898;85;21123;-71
2021/04/14 07:43:03;;;;;;;21.85;13.55;;;;;;;10.11;58.15;99451.14;1694383;85;21218;-71
2021/04/14 07:45:34;;;;;;;23.60;13.70;;;;;;;10.23;58.42;99454.67;1705820;83;21103;-70
2021/04/14 07:48:08;;;;;;;22.58;14.25;;;;;;;10.38;58.22;99447.45;1719741;83;21304;-71
2021/04/14 07:50:43;;;;;;;19.73;12.63;;;;;;;10.51;57.94;99458.78;1723090;83;21344;-70
2021/04/14 07:53:33;;;;;;;21.73;12.82;;;;;;;10.64;57.55;99449.48;1723221;83;21166;-71
2021/04/14 07:56:19;;;;;;;21.20;14.07;;;;;;;10.76;57.66;99447.70;1718021;83;21144;-71
2021/04/14 07:58:47;;;;;;;21.82;12.65;;;;;;;10.90;57.60;99450.13;1709902;83;21576;-71
2021/04/14 08:01:24;;;;;;;21.57;12.70;;;;;;;11.05;57.08;99451.22;1709967;84;21187;-72
2021/04/14 08:03:53;;;;;;;15.83;10.98;;;;;;;11.20;56.95;99448.73;1709701;84;21345;-71
2021/04/14 08:06:28;;;;;;;19.80;12.85;;;;;;;11.42;56.08;99449.67;1689596;84;21155;-70
2021/04/14 08:08:56;;;;;;;15.58;10.70;;;;;;;11.58;55.87;99450.64;1709608;84;21152;-71
2021/04/14 08:11:31;;;;;;;16.60;12.65;;;;;;;11.75;55.20;99450.61;1705034;84;21167;-71
2021/04/14 08:14:34;;;;;;;21.70;12.65;;;;;;;11.87;54.95;99448.31;1691974;84;21176;-71
2021/04/14 08:17:03;;;;;;;19.75;12.88;;;;;;;12.02;55.11;99446.73;1681157;84;21289;-70
2021/04/14 08:19:35;;;;;;;18.70;12.37;;;;;;;12.29;55.55;99445.81;1681215;85;21356;-70
2021/04/14 08:22:17;;;;;;;16.85;12.37;;;;;;;12.58;53.46;99437.72;1686972;84;21127;-71
2021/04/14 08:24:59;;;;;;;18.30;12.75;;;;;;;12.76;52.68;99449.92;1709844;84;21183;-70
2021/04/14 08:27:36;;;;;;;21.95;14.20;;;;;;;12.77;51.83;99445.84;1709619;84;21195;-71
2021/04/14 08:30:20;;;;;;;19.80;13.18;;;;;;;12.77;51.86;99442.32;1709706;83;21148;-72
2021/04/14 08:32:58;;;;;;;21.68;13.88;;;;;;;12.76;51.37;99439.30;1690861;84;21215;-71
2021/04/14 08:35:41;;;;;;;18.77;12.45;;;;;;;12.65;51.75;99432.73;1678182;85;21199;-72
2021/04/14 08:38:25;;;;;;;22.35;13.93;;;;;;;12.61;51.81;99428.20;1681103;85;21655;-71
2021/04/14 08:40:57;;;;;;;20.27;14.50;;;;;;;12.67;52.10;99429.48;1681285;85;21156;-71
2021/04/14 08:43:39;;;;;;;21.93;13.53;;;;;;;12.77;51.19;99425.94;1682359;84;21604;-72
2021/04/14 08:46:26;;;;;;;18.27;13.53;;;;;;;12.84;51.15;99422.27;1690021;84;21135;-71
2021/04/14 08:49:00;;;;;;;17.85;12.55;;;;;;;12.89;50.95;99420.06;1709764;83;21191;-71
2021/04/14 08:51:29;;;;;;;19.42;13.18;;;;;;;12.92;50.93;99417.62;1689950;84;21325;-71
2021/04/14 08:53:58;;;;;;;19.90;14.40;;;;;;;12.99;50.65;99413.95;1683459;84;21136;-70
2021/04/14 08:56:26;;;;;;;22.40;13.65;;;;;;;13.09;50.40;99405.55;1681842;84;21222;-70
2021/04/14 08:58:55;;;;;;;23.60;13.95;;;;;;;13.25;50.62;99412.55;1692347;84;21171;-71
2021/04/14 09:01:24;;;;;;;20.92;13.20;;;;;;;13.68;50.00;99411.96;1686745;84;21180;-70
2021/04/14 09:03:52;;;;;;;18.95;12.25;;;;;;;13.68;50.00;99411.96;1697847;84;21306;-71
2021/04/14 09:06:21;;;;;;;16.85;12.07;;;;;;;13.92;47.46;99400.92;1683367;83;21155;-71
2021/04/14 09:08:52;;;;;;;22.55;13.30;;;;;;;13.92;47.46;99400.92;1681271;85;21329;-71
2021/04/14 09:11:30;;;;;;;19.05;14.85;;;;;;;13.99;47.49;99397.72;1669480;85;21313;-72
2021/04/14 09:14:03;;;;;;;19.52;14.20;;;;;;;14.11;48.27;99380.66;1689894;84;21127;-71
2021/04/14 09:16:54;;;;;;;28.60;12.78;;;;;;;14.33;47.38;99377.36;1685054;84;21166;-71
2021/04/14 09:19:33;;;;;;;16.42;12.07;;;;;;;14.49;46.61;99372.78;1682772;84;21135;-72
2021/04/14 09:22:15;;;;;;;19.92;13.20;;;;;;;14.61;46.55;99381.47;1681385;85;21747;-73
2021/04/14 09:24:53;;;;;;;20.60;13.03;;;;;;;14.69;46.10;99376.28;1681640;85;21572;-72
2021/04/14 09:27:44;;;;;;;22.62;13.43;;;;;;;14.76;46.33;99362.76;1683877;84;21127;-72
2021/04/14 09:30:40;;;;;;;20.62;12.73;;;;;;;14.83;46.75;99357.69;1681442;84;21350;-71
2021/04/14 09:33:19;;;;;;;17.07;11.22;;;;;;;14.97;45.71;99361.70;1680771;85;21650;-72
2021/04/14 09:35:56;;;;;;;29.63;11.12;;;;;;;15.07;45.97;99354.52;1690258;84;21191;-72
2021/04/14 09:38:34;;;;;;;17.30;12.28;;;;;;;15.26;44.71;99360.25;1709610;84;21176;-72
2021/04/14 09:41:27;;;;;;;16.70;10.48;;;;;;;15.37;44.31;99361.39;1703247;84;21215;-71
2021/04/14 09:44:33;;;;;;;17.70;11.65;;;;;;;15.38;44.59;99352.89;1637317;82;66334;-79
2021/04/14 09:47:27;;;;;;;16.35;11.73;;;;;;;15.40;45.22;99341.60;1691967;83;21602;-78
2021/04/14 09:50:01;;;;;;;16.90;12.10;;;;;;;15.48;45.46;99340.34;1748666;79;21604;-78
2021/04/14 09:52:36;;;;;;;14.30;11.10;;;;;;;15.61;45.55;99332.49;1770529;79;21081;-77
2021/04/14 09:55:20;;;;;;;17.15;11.80;;;;;;;15.71;44.61;99339.42;1732650;81;21201;-75
2021/04/14 09:57:49;;;;;;;17.05;12.13;;;;;;;15.76;44.70;99332.31;1762116;81;21270;-75
2021/04/14 10:00:25;;;;;;;17.00;11.85;;;;;;;15.80;44.91;99332.34;1757016;81;21177;-75
2021/04/14 10:03:01;;;;;;;16.50;12.07;;;;;;;15.89;44.93;99330.63;1764617;81;22216;-76
2021/04/14 10:05:29;;;;;;;17.52;10.63;;;;;;;15.97;44.73;99326.72;1757643;81;21400;-76
2021/04/14 10:07:59;;;;;;;15.93;11.95;;;;;;;16.07;44.62;99325.79;1759052;81;21220;-77
2021/04/14 10:10:28;;;;;;;22.48;11.60;;;;;;;16.15;44.84;99322.70;1751022;82;21298;-77
2021/04/14 10:12:58;;;;;;;14.33;11.20;;;;;;;16.27;44.27;99319.28;1726832;83;21172;-76
2021/04/14 10:15:32;;;;;;;16.27;12.73;;;;;;;16.28;44.22;99320.95;1739609;81;21152;-76
2021/04/14 10:18:05;;;;;;;15.90;12.87;;;;;;;16.38;44.35;99302.16;1759331;81;21172;-77
2021/04/14 10:20:37;;;;;;;14.75;11.80;;;;;;;16.50;43.84;99312.11;1750892;82;21168;-77
2021/04/14 10:23:11;;;;;;;20.40;12.98;;;;;;;16.57;43.56;99300.30;1759183;81;21180;-76
2021/04/14 10:25:41;;;;;;;17.80;12.43;;;;;;;16.60;43.84;99298.63;1762157;80;21168;-76
2021/04/14 10:28:20;;;;;;;19.52;12.70;;;;;;;16.59;43.27;99303.14;1758421;81;21326;-76
2021/04/14 10:31:07;;;;;;;15.28;12.40;;;;;;;16.60;43.21;99291.95;1732233;81;21116;-77
2021/04/14 10:33:37;;;;;;;18.85;12.30;;;;;;;16.65;42.62;99298.99;1746138;81;21173;-77
2021/04/14 10:36:16;;;;;;;16.57;12.55;;;;;;;16.62;42.87;99286.80;1764867;81;21205;-76
2021/04/14 10:38:44;;;;;;;16.30;12.40;;;;;;;16.61;42.96;99297.64;1759148;81;21140;-76
2021/04/14 10:41:19;;;;;;;18.45;11.97;;;;;;;16.63;42.70;99285.81;1750117;82;21326;-76
2021/04/14 10:43:48;;;;;;;16.23;13.13;;;;;;;16.66;43.05;99292.66;1752435;81;21141;-76
2021/04/14 10:46:28;;;;;;;20.90;13.10;;;;;;;16.78;43.02;99280.72;1763318;81;21688;-76
2021/04/14 10:49:06;;;;;;;21.07;12.80;;;;;;;16.95;43.43;99279.49;1765102;81;21712;-76
2021/04/14 10:51:47;;;;;;;19.48;13.58;;;;;;;17.12;42.67;99273.70;1751552;81;21135;-76
2021/04/14 10:54:16;;;;;;;14.18;11.63;;;;;;;17.19;41.70;99274.23;1741830;81;21602;-76
2021/04/14 10:56:44;;;;;;;17.80;11.68;;;;;;;17.20;41.25;99269.73;1740989;82;21385;-75
2021/04/14 10:59:15;;;;;;;17.90;11.68;;;;;;;17.13;41.58;99269.52;1738899;81;21143;-75
2021/04/14 11:01:47;;;;;;;16.95;11.35;;;;;;;17.10;42.12;99273.88;1746579;82;21178;-75
2021/04/14 11:04:26;;;;;;;18.52;10.70;;;;;;;17.14;42.10;99269.05;1728914;82;21617;-76
2021/04/14 11:07:02;;;;;;;25.12;11.73;;;;;;;17.12;41.51;99269.22;1742405;82;21144;-75
2021/04/14 11:09:31;;;;;;;20.62;11.10;;;;;;;17.01;41.33;99266.84;1747686;81;21799;-75
2021/04/14 11:12:01;;;;;;;21.05;11.33;;;;;;;16.90;41.90;99269.25;1740545;82;21171;-75
2021/04/14 11:14:30;;;;;;;14.60;9.23;;;;;;;16.94;42.06;99271.14;1726512;83;21297;-76
2021/04/14 11:16:58;;;;;;;12.70;8.75;;;;;;;17.03;41.73;99266.16;1701804;83;21175;-76
2021/04/14 11:19:28;;;;;;;13.00;8.80;;;;;;;17.15;41.93;99257.36;1727285;83;21132;-76
2021/04/14 11:22:10;;;;;;;12.35;9.38;;;;;;;17.18;40.86;99251.17;1732753;83;21180;-76
2021/04/14 11:24:48;;;;;;;11.03;8.37;;;;;;;17.27;40.47;99243.19;1741487;82;21713;-76
2021/04/14 11:27:27;;;;;;;11.88;7.53;;;;;;;17.41;39.62;99246.55;1738086;82;21333;-76
2021/04/14 11:30:13;;;;;;;13.13;8.73;;;;;;;17.52;39.53;99246.23;1741144;82;21132;-76
2021/04/14 11:32:40;;;;;;;14.18;9.20;;;;;;;17.50;38.13;99242.88;1741303;82;21152;-76
2021/04/14 11:35:12;;;;;;;11.40;8.45;;;;;;;17.31;38.22;99241.34;1741174;82;21175;-76
2021/04/14 11:37:46;;;;;;;12.05;8.28;;;;;;;17.28;38.67;99224.31;1722555;82;21183;-76
2021/04/14 11:40:32;;;;;;;12.50;7.67;;;;;;;17.35;38.97;99235.17;1741159;82;21386;-75
2021/04/14 11:43:07;;;;;;;18.75;7.55;;;;;;;17.47;38.73;99229.86;1741155;82;21176;-76
2021/04/14 11:45:37;;;;;;;19.10;7.97;;;;;;;17.58;39.04;99226.52;1729657;82;21337;-75
2021/04/14 11:48:13;;;;;;;10.40;6.92;;;;;;;17.59;38.53;99233.55;1741361;82;21191;-76
2021/04/14 11:50:44;;;;;;;46.30;9.05;;;;;;;17.51;37.88;99235.20;1741834;81;21325;-76